sensor_id;sensor_type;location;lat;lon;timestamp;temperature;humidity
18041;DHT22;9145;48.588;9.250;2024-02-21T00:02:20;6.60;99.90
18041;DHT22;9145;48.588;9.250;2024-02-21T00:04:47;6.70;99.90
18041;DHT22;9145;48.588;9.250;2024-02-21T00:07:14;6.70;99.90
18041;DHT22;9145;48.588;9.250;2024-02-21T00:09:41;6.70;99.90
18041;DHT22;9145;48.588;9.250;2024-02-21T00:12:10;6.70;99.90
18041;DHT22;9145;48.588;9.250;2024-02-21T00:14:39;6.70;99.90
18041;DHT22;9145;48.588;9.250;2024-02-21T00:17:06;6.70;99.90
18041;DHT22;9145;48.588;9.250;2024-02-21T00:19:34;6.70;99.90
18041;DHT22;9145;48.588;9.250;2024-02-21T00:22:01;6.70;99.90
18041;DHT22;9145;48.588;9.250;2024-02-21T00:24:28;6.80;99.90
18041;DHT22;9145;48.588;9.250;2024-02-21T00:26:54;6.80;99.90
18041;DHT22;9145;48.588;9.250;2024-02-21T00:29:23;6.80;99.90
18041;DHT22;9145;48.588;9.250;2024-02-21T00:31:50;6.70;99.90
18041;DHT22;9145;48.588;9.250;2024-02-21T00:34:16;6.70;99.90
18041;DHT22;9145;48.588;9.250;2024-02-21T00:36:43;6.70;99.90
18041;DHT22;9145;48.588;9.250;2024-02-21T00:39:10;6.70;99.90
18041;DHT22;9145;48.588;9.250;2024-02-21T00:41:37;6.70;99.90
18041;DHT22;9145;48.588;9.250;2024-02-21T00:44:04;6.70;99.90
18041;DHT22;9145;48.588;9.250;2024-02-21T00:46:33;6.70;99.90
18041;DHT22;9145;48.588;9.250;2024-02-21T00:49:00;6.70;99.90
18041;DHT22;9145;48.588;9.250;2024-02-21T00:51:26;6.70;99.90
18041;DHT22;9145;48.588;9.250;2024-02-21T00:53:53;6.80;99.90
18041;DHT22;9145;48.588;9.250;2024-02-21T00:56:21;6.80;99.90
18041;DHT22;9145;48.588;9.250;2024-02-21T00:58:48;6.70;99.90
18041;DHT22;9145;48.588;9.250;2024-02-21T01:01:21;6.70;99.90
18041;DHT22;9145;48.588;9.250;2024-02-21T01:03:50;6.70;99.90
18041;DHT22;9145;48.588;9.250;2024-02-21T01:06:18;6.70;99.90
18041;DHT22;9145;48.588;9.250;2024-02-21T01:08:46;6.70;99.90
18041;DHT22;9145;48.588;9.250;2024-02-21T01:11:13;6.70;99.90
18041;DHT22;9145;48.588;9.250;2024-02-21T01:13:40;6.70;99.90
18041;DHT22;9145;48.588;9.250;2024-02-21T01:16:07;6.70;99.90
18041;DHT22;9145;48.588;9.250;2024-02-21T01:18:34;6.70;99.90
18041;DHT22;9145;48.588;9.250;2024-02-21T01:21:03;6.60;99.90
18041;DHT22;9145;48.588;9.250;2024-02-21T01:23:32;6.70;99.90
18041;DHT22;9145;48.588;9.250;2024-02-21T01:25:59;6.60;99.90
18041;DHT22;9145;48.588;9.250;2024-02-21T01:28:26;6.60;99.90
18041;DHT22;9145;48.588;9.250;2024-02-21T01:30:53;6.60;99.90
18041;DHT22;9145;48.588;9.250;2024-02-21T01:33:19;6.70;99.90
18041;DHT22;9145;48.588;9.250;2024-02-21T01:35:46;6.70;99.90
18041;DHT22;9145;48.588;9.250;2024-02-21T01:38:16;6.70;99.90
18041;DHT22;9145;48.588;9.250;2024-02-21T01:40:42;6.70;99.90
18041;DHT22;9145;48.588;9.250;2024-02-21T01:43:15;6.70;99.90
18041;DHT22;9145;48.588;9.250;2024-02-21T01:45:42;6.60;99.90
18041;DHT22;9145;48.588;9.250;2024-02-21T01:48:09;6.60;99.90
18041;DHT22;9145;48.588;9.250;2024-02-21T01:50:36;6.60;99.90
18041;DHT22;9145;48.588;9.250;2024-02-21T01:53:03;6.60;99.90
18041;DHT22;9145;48.588;9.250;2024-02-21T01:55:32;6.60;99.90
18041;DHT22;9145;48.588;9.250;2024-02-21T01:57:59;6.60;99.90
18041;DHT22;9145;48.588;9.250;2024-02-21T02:00:27;6.50;99.90
18041;DHT22;9145;48.588;9.250;2024-02-21T02:02:54;6.40;99.90
18041;DHT22;9145;48.588;9.250;2024-02-21T02:05:22;6.40;99.90
18041;DHT22;9145;48.588;9.250;2024-02-21T02:07:49;6.20;99.90
18041;DHT22;9145;48.588;9.250;2024-02-21T02:10:15;6.10;99.90
18041;DHT22;9145;48.588;9.250;2024-02-21T02:12:44;6.00;99.90
18041;DHT22;9145;48.588;9.250;2024-02-21T02:15:11;6.00;99.90
18041;DHT22;9145;48.588;9.250;2024-02-21T02:17:38;6.00;99.90
18041;DHT22;9145;48.588;9.250;2024-02-21T02:20:06;5.90;99.90
18041;DHT22;9145;48.588;9.250;2024-02-21T02:22:37;5.90;99.90
18041;DHT22;9145;48.588;9.250;2024-02-21T02:25:07;5.90;99.90
18041;DHT22;9145;48.588;9.250;2024-02-21T02:27:41;5.80;99.90
18041;DHT22;9145;48.588;9.250;2024-02-21T02:30:10;5.80;99.90
18041;DHT22;9145;48.588;9.250;2024-02-21T02:32:37;5.80;99.90
18041;DHT22;9145;48.588;9.250;2024-02-21T02:35:05;5.90;99.90
18041;DHT22;9145;48.588;9.250;2024-02-21T02:37:32;5.90;99.90
18041;DHT22;9145;48.588;9.250;2024-02-21T02:39:59;6.00;99.90
18041;DHT22;9145;48.588;9.250;2024-02-21T02:42:27;6.00;99.90
18041;DHT22;9145;48.588;9.250;2024-02-21T02:44:54;6.00;99.90
18041;DHT22;9145;48.588;9.250;2024-02-21T02:47:22;6.00;99.90
18041;DHT22;9145;48.588;9.250;2024-02-21T02:49:49;6.00;99.90
18041;DHT22;9145;48.588;9.250;2024-02-21T02:52:17;6.10;99.90
18041;DHT22;9145;48.588;9.250;2024-02-21T02:54:44;6.10;99.90
18041;DHT22;9145;48.588;9.250;2024-02-21T02:57:12;6.20;99.90
18041;DHT22;9145;48.588;9.250;2024-02-21T02:59:40;6.30;99.90
18041;DHT22;9145;48.588;9.250;2024-02-21T03:02:07;6.30;99.90
18041;DHT22;9145;48.588;9.250;2024-02-21T03:04:34;6.30;99.90
18041;DHT22;9145;48.588;9.250;2024-02-21T03:07:01;6.30;99.90
18041;DHT22;9145;48.588;9.250;2024-02-21T03:09:28;6.30;99.90
18041;DHT22;9145;48.588;9.250;2024-02-21T03:11:54;6.40;99.90
18041;DHT22;9145;48.588;9.250;2024-02-21T03:14:28;6.40;99.90
18041;DHT22;9145;48.588;9.250;2024-02-21T03:16:56;6.40;99.90
18041;DHT22;9145;48.588;9.250;2024-02-21T03:19:23;6.50;99.90
18041;DHT22;9145;48.588;9.250;2024-02-21T03:21:50;6.60;99.90
18041;DHT22;9145;48.588;9.250;2024-02-21T03:24:18;6.60;99.90
18041;DHT22;9145;48.588;9.250;2024-02-21T03:26:45;6.60;99.90
18041;DHT22;9145;48.588;9.250;2024-02-21T03:29:14;6.60;99.90
18041;DHT22;9145;48.588;9.250;2024-02-21T03:31:41;6.60;99.90
18041;DHT22;9145;48.588;9.250;2024-02-21T03:34:10;6.50;99.90
18041;DHT22;9145;48.588;9.250;2024-02-21T03:36:37;6.50;99.90
18041;DHT22;9145;48.588;9.250;2024-02-21T03:39:04;6.50;99.90
18041;DHT22;9145;48.588;9.250;2024-02-21T03:41:31;6.40;99.90
18041;DHT22;9145;48.588;9.250;2024-02-21T03:43:58;6.40;99.90
18041;DHT22;9145;48.588;9.250;2024-02-21T03:46:24;6.40;99.90
18041;DHT22;9145;48.588;9.250;2024-02-21T03:48:51;6.30;99.90
18041;DHT22;9145;48.588;9.250;2024-02-21T03:51:20;6.30;99.90
18041;DHT22;9145;48.588;9.250;2024-02-21T03:53:46;6.30;99.90
18041;DHT22;9145;48.588;9.250;2024-02-21T03:56:13;6.30;99.90
18041;DHT22;9145;48.588;9.250;2024-02-21T03:58:40;6.40;99.90
18041;DHT22;9145;48.588;9.250;2024-02-21T04:01:07;6.40;99.90
18041;DHT22;9145;48.588;9.250;2024-02-21T04:03:34;6.50;99.90
18041;DHT22;9145;48.588;9.250;2024-02-21T04:06:01;6.50;99.90
18041;DHT22;9145;48.588;9.250;2024-02-21T04:08:29;6.50;99.90
18041;DHT22;9145;48.588;9.250;2024-02-21T04:10:56;6.50;99.90
18041;DHT22;9145;48.588;9.250;2024-02-21T04:13:23;6.40;99.90
18041;DHT22;9145;48.588;9.250;2024-02-21T04:15:51;6.40;99.90
18041;DHT22;9145;48.588;9.250;2024-02-21T04:18:18;6.40;99.90
18041;DHT22;9145;48.588;9.250;2024-02-21T04:20:45;6.40;99.90
18041;DHT22;9145;48.588;9.250;2024-02-21T04:23:12;6.50;99.90
18041;DHT22;9145;48.588;9.250;2024-02-21T04:25:41;6.50;99.90
18041;DHT22;9145;48.588;9.250;2024-02-21T04:28:08;6.60;99.90
18041;DHT22;9145;48.588;9.250;2024-02-21T04:30:34;6.60;99.90
18041;DHT22;9145;48.588;9.250;2024-02-21T04:33:01;6.80;99.90
18041;DHT22;9145;48.588;9.250;2024-02-21T04:35:28;6.80;99.90
18041;DHT22;9145;48.588;9.250;2024-02-21T04:37:55;6.90;99.90
18041;DHT22;9145;48.588;9.250;2024-02-21T04:40:22;6.80;99.90
18041;DHT22;9145;48.588;9.250;2024-02-21T04:42:50;6.80;99.90
18041;DHT22;9145;48.588;9.250;2024-02-21T04:45:17;6.80;99.90
18041;DHT22;9145;48.588;9.250;2024-02-21T04:47:44;6.70;99.90
18041;DHT22;9145;48.588;9.250;2024-02-21T04:50:12;6.70;99.90
18041;DHT22;9145;48.588;9.250;2024-02-21T04:52:39;6.60;99.90
18041;DHT22;9145;48.588;9.250;2024-02-21T04:55:06;6.50;99.90
18041;DHT22;9145;48.588;9.250;2024-02-21T04:57:33;6.50;99.90
18041;DHT22;9145;48.588;9.250;2024-02-21T05:00:02;6.40;99.90
18041;DHT22;9145;48.588;9.250;2024-02-21T05:02:29;6.30;99.90
18041;DHT22;9145;48.588;9.250;2024-02-21T05:04:56;6.30;99.90
18041;DHT22;9145;48.588;9.250;2024-02-21T05:07:23;6.30;99.90
18041;DHT22;9145;48.588;9.250;2024-02-21T05:09:50;6.20;99.90
18041;DHT22;9145;48.588;9.250;2024-02-21T05:12:17;6.30;99.90
18041;DHT22;9145;48.588;9.250;2024-02-21T05:14:44;6.30;99.90
18041;DHT22;9145;48.588;9.250;2024-02-21T05:17:12;6.20;99.90
18041;DHT22;9145;48.588;9.250;2024-02-21T05:19:39;6.20;99.90
18041;DHT22;9145;48.588;9.250;2024-02-21T05:22:06;6.30;99.90
18041;DHT22;9145;48.588;9.250;2024-02-21T05:24:33;6.40;99.90
18041;DHT22;9145;48.588;9.250;2024-02-21T05:26:59;6.50;99.90
18041;DHT22;9145;48.588;9.250;2024-02-21T05:29:26;6.50;99.90
18041;DHT22;9145;48.588;9.250;2024-02-21T05:31:56;6.40;99.90
18041;DHT22;9145;48.588;9.250;2024-02-21T05:34:25;6.30;99.90
18041;DHT22;9145;48.588;9.250;2024-02-21T05:36:52;6.20;99.90
18041;DHT22;9145;48.588;9.250;2024-02-21T05:39:19;6.30;99.90
18041;DHT22;9145;48.588;9.250;2024-02-21T05:41:48;6.30;99.90
18041;DHT22;9145;48.588;9.250;2024-02-21T05:44:15;6.20;99.90
18041;DHT22;9145;48.588;9.250;2024-02-21T05:46:42;6.20;99.90
18041;DHT22;9145;48.588;9.250;2024-02-21T05:49:09;6.20;99.90
18041;DHT22;9145;48.588;9.250;2024-02-21T05:51:37;6.20;99.90
18041;DHT22;9145;48.588;9.250;2024-02-21T05:54:04;6.30;99.90
18041;DHT22;9145;48.588;9.250;2024-02-21T05:56:31;6.40;99.90
18041;DHT22;9145;48.588;9.250;2024-02-21T05:58:58;6.40;99.90
18041;DHT22;9145;48.588;9.250;2024-02-21T06:01:25;6.40;99.90
18041;DHT22;9145;48.588;9.250;2024-02-21T06:03:53;6.40;99.90
18041;DHT22;9145;48.588;9.250;2024-02-21T06:06:20;6.30;99.90
18041;DHT22;9145;48.588;9.250;2024-02-21T06:08:49;6.30;99.90
18041;DHT22;9145;48.588;9.250;2024-02-21T06:11:16;6.20;99.90
18041;DHT22;9145;48.588;9.250;2024-02-21T06:13:43;6.10;99.90
18041;DHT22;9145;48.588;9.250;2024-02-21T06:16:10;6.00;99.90
18041;DHT22;9145;48.588;9.250;2024-02-21T06:18:36;5.90;99.90
18041;DHT22;9145;48.588;9.250;2024-02-21T06:21:04;5.80;99.90
18041;DHT22;9145;48.588;9.250;2024-02-21T06:23:31;5.90;99.90
18041;DHT22;9145;48.588;9.250;2024-02-21T06:25:59;5.90;99.90
18041;DHT22;9145;48.588;9.250;2024-02-21T06:28:26;6.00;99.90
18041;DHT22;9145;48.588;9.250;2024-02-21T06:30:53;5.90;99.90
18041;DHT22;9145;48.588;9.250;2024-02-21T06:33:20;5.80;99.90
18041;DHT22;9145;48.588;9.250;2024-02-21T06:35:50;5.80;99.90
18041;DHT22;9145;48.588;9.250;2024-02-21T06:38:19;5.80;99.90
18041;DHT22;9145;48.588;9.250;2024-02-21T06:40:46;5.90;99.90
18041;DHT22;9145;48.588;9.250;2024-02-21T06:43:18;6.00;99.90
18041;DHT22;9145;48.588;9.250;2024-02-21T06:45:45;6.00;99.90
18041;DHT22;9145;48.588;9.250;2024-02-21T06:48:16;6.00;99.90
18041;DHT22;9145;48.588;9.250;2024-02-21T06:50:43;6.00;99.90
18041;DHT22;9145;48.588;9.250;2024-02-21T06:53:10;5.90;99.90
18041;DHT22;9145;48.588;9.250;2024-02-21T06:55:37;5.90;99.90
18041;DHT22;9145;48.588;9.250;2024-02-21T06:58:04;5.90;99.90
18041;DHT22;9145;48.588;9.250;2024-02-21T07:00:35;6.00;99.90
18041;DHT22;9145;48.588;9.250;2024-02-21T07:03:02;6.00;99.90
18041;DHT22;9145;48.588;9.250;2024-02-21T07:05:29;6.00;99.90
18041;DHT22;9145;48.588;9.250;2024-02-21T07:07:56;6.10;99.90
18041;DHT22;9145;48.588;9.250;2024-02-21T07:10:23;6.10;99.90
18041;DHT22;9145;48.588;9.250;2024-02-21T07:12:49;6.20;99.90
18041;DHT22;9145;48.588;9.250;2024-02-21T07:15:18;6.20;99.90
18041;DHT22;9145;48.588;9.250;2024-02-21T07:17:46;6.20;99.90
18041;DHT22;9145;48.588;9.250;2024-02-21T07:20:13;6.20;99.90
18041;DHT22;9145;48.588;9.250;2024-02-21T07:22:40;6.30;99.90
18041;DHT22;9145;48.588;9.250;2024-02-21T07:25:08;6.40;99.90
18041;DHT22;9145;48.588;9.250;2024-02-21T07:27:35;6.40;99.90
18041;DHT22;9145;48.588;9.250;2024-02-21T07:30:03;6.40;99.90
18041;DHT22;9145;48.588;9.250;2024-02-21T07:32:30;6.50;99.90
18041;DHT22;9145;48.588;9.250;2024-02-21T07:34:58;6.50;99.90
18041;DHT22;9145;48.588;9.250;2024-02-21T07:37:25;6.50;99.90
18041;DHT22;9145;48.588;9.250;2024-02-21T07:39:52;6.50;99.90
18041;DHT22;9145;48.588;9.250;2024-02-21T07:42:19;6.60;99.90
18041;DHT22;9145;48.588;9.250;2024-02-21T07:44:46;6.70;99.90
18041;DHT22;9145;48.588;9.250;2024-02-21T07:47:13;6.60;99.90
18041;DHT22;9145;48.588;9.250;2024-02-21T07:49:44;6.70;99.90
18041;DHT22;9145;48.588;9.250;2024-02-21T07:52:12;6.80;99.90
18041;DHT22;9145;48.588;9.250;2024-02-21T07:54:40;6.90;99.90
18041;DHT22;9145;48.588;9.250;2024-02-21T07:57:07;7.00;99.90
18041;DHT22;9145;48.588;9.250;2024-02-21T07:59:34;7.10;99.90
18041;DHT22;9145;48.588;9.250;2024-02-21T08:02:01;7.30;99.90
18041;DHT22;9145;48.588;9.250;2024-02-21T08:04:28;7.50;99.90
18041;DHT22;9145;48.588;9.250;2024-02-21T08:06:55;7.40;99.90
18041;DHT22;9145;48.588;9.250;2024-02-21T08:09:26;7.40;99.90
18041;DHT22;9145;48.588;9.250;2024-02-21T08:11:54;7.50;99.90
18041;DHT22;9145;48.588;9.250;2024-02-21T08:14:21;7.40;99.90
18041;DHT22;9145;48.588;9.250;2024-02-21T08:16:50;7.50;99.90
18041;DHT22;9145;48.588;9.250;2024-02-21T08:19:17;7.50;99.90
18041;DHT22;9145;48.588;9.250;2024-02-21T08:21:44;7.50;99.90
18041;DHT22;9145;48.588;9.250;2024-02-21T08:24:12;7.40;99.90
18041;DHT22;9145;48.588;9.250;2024-02-21T08:26:41;7.30;99.90
18041;DHT22;9145;48.588;9.250;2024-02-21T08:29:10;7.20;99.90
18041;DHT22;9145;48.588;9.250;2024-02-21T08:31:37;7.10;99.90
18041;DHT22;9145;48.588;9.250;2024-02-21T08:34:04;7.10;99.90
18041;DHT22;9145;48.588;9.250;2024-02-21T08:36:31;7.10;99.90
18041;DHT22;9145;48.588;9.250;2024-02-21T08:38:59;7.10;99.90
18041;DHT22;9145;48.588;9.250;2024-02-21T08:41:26;7.10;99.90
18041;DHT22;9145;48.588;9.250;2024-02-21T08:43:55;7.10;99.90
18041;DHT22;9145;48.588;9.250;2024-02-21T08:46:22;7.10;99.90
18041;DHT22;9145;48.588;9.250;2024-02-21T08:48:49;7.10;99.90
18041;DHT22;9145;48.588;9.250;2024-02-21T08:51:17;7.20;99.90
18041;DHT22;9145;48.588;9.250;2024-02-21T08:53:44;7.30;99.90
18041;DHT22;9145;48.588;9.250;2024-02-21T08:56:11;7.50;99.90
18041;DHT22;9145;48.588;9.250;2024-02-21T08:58:39;7.50;99.90
18041;DHT22;9145;48.588;9.250;2024-02-21T09:01:08;7.50;99.90
18041;DHT22;9145;48.588;9.250;2024-02-21T09:03:36;7.60;99.90
18041;DHT22;9145;48.588;9.250;2024-02-21T09:06:04;7.60;99.90
18041;DHT22;9145;48.588;9.250;2024-02-21T09:08:31;7.70;99.90
18041;DHT22;9145;48.588;9.250;2024-02-21T09:11:00;7.70;99.90
18041;DHT22;9145;48.588;9.250;2024-02-21T09:13:27;7.80;99.90
18041;DHT22;9145;48.588;9.250;2024-02-21T09:15:54;7.90;99.90
18041;DHT22;9145;48.588;9.250;2024-02-21T09:18:22;8.10;99.90
18041;DHT22;9145;48.588;9.250;2024-02-21T09:20:49;8.10;99.90
18041;DHT22;9145;48.588;9.250;2024-02-21T09:23:16;8.20;99.90
18041;DHT22;9145;48.588;9.250;2024-02-21T09:25:45;8.30;99.90
18041;DHT22;9145;48.588;9.250;2024-02-21T09:28:12;8.40;99.90
18041;DHT22;9145;48.588;9.250;2024-02-21T09:30:39;8.40;99.90
18041;DHT22;9145;48.588;9.250;2024-02-21T09:33:06;8.50;99.90
18041;DHT22;9145;48.588;9.250;2024-02-21T09:35:34;8.60;99.90
18041;DHT22;9145;48.588;9.250;2024-02-21T09:38:01;8.70;99.90
18041;DHT22;9145;48.588;9.250;2024-02-21T09:40:29;8.80;99.90
18041;DHT22;9145;48.588;9.250;2024-02-21T09:43:03;8.90;99.90
18041;DHT22;9145;48.588;9.250;2024-02-21T09:45:32;9.10;99.90
18041;DHT22;9145;48.588;9.250;2024-02-21T09:48:11;9.10;99.90
18041;DHT22;9145;48.588;9.250;2024-02-21T09:50:43;9.10;99.90
18041;DHT22;9145;48.588;9.250;2024-02-21T09:53:12;9.00;99.90
18041;DHT22;9145;48.588;9.250;2024-02-21T09:55:40;9.00;99.90
18041;DHT22;9145;48.588;9.250;2024-02-21T09:58:07;9.00;99.90
18041;DHT22;9145;48.588;9.250;2024-02-21T10:00:35;9.10;99.90
18041;DHT22;9145;48.588;9.250;2024-02-21T10:03:03;9.10;99.90
18041;DHT22;9145;48.588;9.250;2024-02-21T10:05:33;9.20;99.90
18041;DHT22;9145;48.588;9.250;2024-02-21T10:08:02;9.20;99.90
18041;DHT22;9145;48.588;9.250;2024-02-21T10:10:29;9.30;99.90
18041;DHT22;9145;48.588;9.250;2024-02-21T10:12:56;9.50;99.90
18041;DHT22;9145;48.588;9.250;2024-02-21T10:15:25;9.50;99.90
18041;DHT22;9145;48.588;9.250;2024-02-21T10:17:58;9.70;99.90
18041;DHT22;9145;48.588;9.250;2024-02-21T10:20:26;9.80;99.90
18041;DHT22;9145;48.588;9.250;2024-02-21T10:23:02;10.00;99.90
18041;DHT22;9145;48.588;9.250;2024-02-21T10:25:33;10.00;99.90
18041;DHT22;9145;48.588;9.250;2024-02-21T10:28:01;10.10;99.90
18041;DHT22;9145;48.588;9.250;2024-02-21T10:30:29;10.20;99.90
18041;DHT22;9145;48.588;9.250;2024-02-21T10:32:56;10.20;99.90
18041;DHT22;9145;48.588;9.250;2024-02-21T10:35:27;10.30;99.90
18041;DHT22;9145;48.588;9.250;2024-02-21T10:37:55;10.40;99.90
18041;DHT22;9145;48.588;9.250;2024-02-21T10:40:24;10.50;99.90
18041;DHT22;9145;48.588;9.250;2024-02-21T10:42:56;10.50;99.90
18041;DHT22;9145;48.588;9.250;2024-02-21T10:45:29;10.50;99.90
18041;DHT22;9145;48.588;9.250;2024-02-21T10:48:06;10.60;99.90
18041;DHT22;9145;48.588;9.250;2024-02-21T10:50:45;10.70;99.90
18041;DHT22;9145;48.588;9.250;2024-02-21T10:53:20;10.80;99.90
18041;DHT22;9145;48.588;9.250;2024-02-21T10:55:58;11.00;99.90
18041;DHT22;9145;48.588;9.250;2024-02-21T10:58:29;11.00;99.90
18041;DHT22;9145;48.588;9.250;2024-02-21T11:00:57;11.00;99.90
18041;DHT22;9145;48.588;9.250;2024-02-21T11:03:24;11.20;99.90
18041;DHT22;9145;48.588;9.250;2024-02-21T11:05:51;11.30;99.90
18041;DHT22;9145;48.588;9.250;2024-02-21T11:08:18;11.20;99.90
18041;DHT22;9145;48.588;9.250;2024-02-21T11:10:46;11.20;99.90
18041;DHT22;9145;48.588;9.250;2024-02-21T11:13:14;11.30;99.90
18041;DHT22;9145;48.588;9.250;2024-02-21T11:15:41;11.30;99.90
18041;DHT22;9145;48.588;9.250;2024-02-21T11:18:08;11.50;99.90
18041;DHT22;9145;48.588;9.250;2024-02-21T11:20:36;11.50;99.90
18041;DHT22;9145;48.588;9.250;2024-02-21T11:23:03;11.50;99.90
18041;DHT22;9145;48.588;9.250;2024-02-21T11:25:30;11.60;99.90
18041;DHT22;9145;48.588;9.250;2024-02-21T11:28:02;11.70;99.90
18041;DHT22;9145;48.588;9.250;2024-02-21T11:30:32;11.80;99.90
18041;DHT22;9145;48.588;9.250;2024-02-21T11:33:02;11.90;99.90
18041;DHT22;9145;48.588;9.250;2024-02-21T11:35:33;12.00;99.90
18041;DHT22;9145;48.588;9.250;2024-02-21T11:38:13;12.10;99.90
18041;DHT22;9145;48.588;9.250;2024-02-21T11:40:43;12.20;99.90
18041;DHT22;9145;48.588;9.250;2024-02-21T11:43:11;12.30;99.90
18041;DHT22;9145;48.588;9.250;2024-02-21T11:45:39;12.30;99.90
18041;DHT22;9145;48.588;9.250;2024-02-21T11:48:07;12.40;99.90
18041;DHT22;9145;48.588;9.250;2024-02-21T11:50:34;12.50;99.90
18041;DHT22;9145;48.588;9.250;2024-02-21T11:53:02;12.50;99.90
18041;DHT22;9145;48.588;9.250;2024-02-21T11:55:29;12.50;99.90
18041;DHT22;9145;48.588;9.250;2024-02-21T11:57:56;12.60;99.90
18041;DHT22;9145;48.588;9.250;2024-02-21T12:00:25;12.60;99.90
18041;DHT22;9145;48.588;9.250;2024-02-21T12:02:53;12.70;99.90
18041;DHT22;9145;48.588;9.250;2024-02-21T12:05:25;12.70;99.90
18041;DHT22;9145;48.588;9.250;2024-02-21T12:07:54;12.70;99.90
18041;DHT22;9145;48.588;9.250;2024-02-21T12:10:21;12.70;99.90
18041;DHT22;9145;48.588;9.250;2024-02-21T12:12:48;12.70;99.90
18041;DHT22;9145;48.588;9.250;2024-02-21T12:15:18;12.70;99.90
18041;DHT22;9145;48.588;9.250;2024-02-21T12:17:45;12.70;99.90
18041;DHT22;9145;48.588;9.250;2024-02-21T12:20:14;12.70;99.90
18041;DHT22;9145;48.588;9.250;2024-02-21T12:22:41;12.70;99.90
18041;DHT22;9145;48.588;9.250;2024-02-21T12:25:15;12.90;99.90
18041;DHT22;9145;48.588;9.250;2024-02-21T12:27:44;13.00;99.90
18041;DHT22;9145;48.588;9.250;2024-02-21T12:30:11;13.00;99.90
18041;DHT22;9145;48.588;9.250;2024-02-21T12:32:38;13.00;99.90
18041;DHT22;9145;48.588;9.250;2024-02-21T12:35:07;13.00;99.90
18041;DHT22;9145;48.588;9.250;2024-02-21T12:37:35;13.10;99.90
18041;DHT22;9145;48.588;9.250;2024-02-21T12:40:04;13.10;99.90
18041;DHT22;9145;48.588;9.250;2024-02-21T12:42:32;13.20;99.90
18041;DHT22;9145;48.588;9.250;2024-02-21T12:44:59;13.30;99.90
18041;DHT22;9145;48.588;9.250;2024-02-21T12:47:26;13.30;99.90
18041;DHT22;9145;48.588;9.250;2024-02-21T12:49:53;13.30;99.90
18041;DHT22;9145;48.588;9.250;2024-02-21T12:52:20;13.30;99.90
18041;DHT22;9145;48.588;9.250;2024-02-21T12:54:48;13.50;99.90
18041;DHT22;9145;48.588;9.250;2024-02-21T12:57:17;13.50;99.90
18041;DHT22;9145;48.588;9.250;2024-02-21T12:59:44;13.60;99.90
18041;DHT22;9145;48.588;9.250;2024-02-21T13:02:10;13.60;99.90
18041;DHT22;9145;48.588;9.250;2024-02-21T13:04:37;13.60;99.90
18041;DHT22;9145;48.588;9.250;2024-02-21T13:07:06;13.60;99.90
18041;DHT22;9145;48.588;9.250;2024-02-21T13:09:33;13.60;99.90
18041;DHT22;9145;48.588;9.250;2024-02-21T13:12:02;13.70;99.90
18041;DHT22;9145;48.588;9.250;2024-02-21T13:14:29;13.60;99.90
18041;DHT22;9145;48.588;9.250;2024-02-21T13:16:55;13.60;99.90
18041;DHT22;9145;48.588;9.250;2024-02-21T13:19:22;13.60;99.90
18041;DHT22;9145;48.588;9.250;2024-02-21T13:21:49;13.60;99.90
18041;DHT22;9145;48.588;9.250;2024-02-21T13:24:16;13.70;99.90
18041;DHT22;9145;48.588;9.250;2024-02-21T13:26:43;13.80;99.90
18041;DHT22;9145;48.588;9.250;2024-02-21T13:29:11;13.80;99.90
18041;DHT22;9145;48.588;9.250;2024-02-21T13:31:38;13.80;99.90
18041;DHT22;9145;48.588;9.250;2024-02-21T13:34:05;13.90;99.90
18041;DHT22;9145;48.588;9.250;2024-02-21T13:36:32;13.90;99.90
18041;DHT22;9145;48.588;9.250;2024-02-21T13:38:59;13.90;99.90
18041;DHT22;9145;48.588;9.250;2024-02-21T13:41:26;13.90;99.90
18041;DHT22;9145;48.588;9.250;2024-02-21T13:43:53;13.80;99.90
18041;DHT22;9145;48.588;9.250;2024-02-21T13:46:21;14.00;99.90
18041;DHT22;9145;48.588;9.250;2024-02-21T13:48:48;14.00;99.90
18041;DHT22;9145;48.588;9.250;2024-02-21T13:51:15;13.90;99.90
18041;DHT22;9145;48.588;9.250;2024-02-21T13:53:42;13.80;99.90
18041;DHT22;9145;48.588;9.250;2024-02-21T13:56:09;13.80;99.90
18041;DHT22;9145;48.588;9.250;2024-02-21T13:58:36;13.90;99.90
18041;DHT22;9145;48.588;9.250;2024-02-21T14:01:03;13.80;99.90
18041;DHT22;9145;48.588;9.250;2024-02-21T14:03:31;13.90;99.90
18041;DHT22;9145;48.588;9.250;2024-02-21T14:05:58;14.00;99.90
18041;DHT22;9145;48.588;9.250;2024-02-21T14:08:25;13.80;99.90
18041;DHT22;9145;48.588;9.250;2024-02-21T14:10:52;13.70;99.90
18041;DHT22;9145;48.588;9.250;2024-02-21T14:13:18;13.70;99.90
18041;DHT22;9145;48.588;9.250;2024-02-21T14:15:46;13.70;99.90
18041;DHT22;9145;48.588;9.250;2024-02-21T14:18:13;13.70;99.90
18041;DHT22;9145;48.588;9.250;2024-02-21T14:20:43;13.70;99.90
18041;DHT22;9145;48.588;9.250;2024-02-21T14:23:10;13.70;99.90
18041;DHT22;9145;48.588;9.250;2024-02-21T14:25:38;13.60;99.90
18041;DHT22;9145;48.588;9.250;2024-02-21T14:28:07;13.70;99.90
18041;DHT22;9145;48.588;9.250;2024-02-21T14:30:34;13.70;99.90
18041;DHT22;9145;48.588;9.250;2024-02-21T14:33:01;13.80;99.90
18041;DHT22;9145;48.588;9.250;2024-02-21T14:35:28;13.90;99.90
18041;DHT22;9145;48.588;9.250;2024-02-21T14:37:56;13.90;99.90
18041;DHT22;9145;48.588;9.250;2024-02-21T14:40:23;13.80;99.90
18041;DHT22;9145;48.588;9.250;2024-02-21T14:42:50;13.80;99.90
18041;DHT22;9145;48.588;9.250;2024-02-21T14:45:18;13.70;99.90
18041;DHT22;9145;48.588;9.250;2024-02-21T14:47:44;13.70;99.90
18041;DHT22;9145;48.588;9.250;2024-02-21T14:50:11;13.70;99.90
18041;DHT22;9145;48.588;9.250;2024-02-21T14:52:38;13.80;99.90
18041;DHT22;9145;48.588;9.250;2024-02-21T14:55:07;13.70;99.90
18041;DHT22;9145;48.588;9.250;2024-02-21T14:57:34;13.60;99.90
18041;DHT22;9145;48.588;9.250;2024-02-21T15:00:01;13.60;99.90
18041;DHT22;9145;48.588;9.250;2024-02-21T15:02:33;13.60;99.90
18041;DHT22;9145;48.588;9.250;2024-02-21T15:05:01;13.60;99.90
18041;DHT22;9145;48.588;9.250;2024-02-21T15:07:29;13.60;99.90
18041;DHT22;9145;48.588;9.250;2024-02-21T15:09:56;13.60;99.90
18041;DHT22;9145;48.588;9.250;2024-02-21T15:12:24;13.60;99.90
18041;DHT22;9145;48.588;9.250;2024-02-21T15:14:51;13.50;99.90
18041;DHT22;9145;48.588;9.250;2024-02-21T15:17:18;13.50;99.90
18041;DHT22;9145;48.588;9.250;2024-02-21T15:19:45;13.50;99.90
18041;DHT22;9145;48.588;9.250;2024-02-21T15:22:13;13.40;99.90
18041;DHT22;9145;48.588;9.250;2024-02-21T15:24:40;13.30;99.90
18041;DHT22;9145;48.588;9.250;2024-02-21T15:27:08;13.30;99.90
18041;DHT22;9145;48.588;9.250;2024-02-21T15:29:36;13.20;99.90
18041;DHT22;9145;48.588;9.250;2024-02-21T15:32:04;13.20;99.90
18041;DHT22;9145;48.588;9.250;2024-02-21T15:34:31;13.10;99.90
18041;DHT22;9145;48.588;9.250;2024-02-21T15:36:58;13.10;99.90
18041;DHT22;9145;48.588;9.250;2024-02-21T15:39:25;13.10;99.90
18041;DHT22;9145;48.588;9.250;2024-02-21T15:41:52;13.20;99.90
18041;DHT22;9145;48.588;9.250;2024-02-21T15:44:19;13.30;99.90
18041;DHT22;9145;48.588;9.250;2024-02-21T15:46:48;13.40;99.90
18041;DHT22;9145;48.588;9.250;2024-02-21T15:49:16;13.30;99.90
18041;DHT22;9145;48.588;9.250;2024-02-21T15:51:43;13.40;99.90
18041;DHT22;9145;48.588;9.250;2024-02-21T15:54:09;13.30;99.90
18041;DHT22;9145;48.588;9.250;2024-02-21T15:56:36;13.30;99.90
18041;DHT22;9145;48.588;9.250;2024-02-21T15:59:03;13.20;99.90
18041;DHT22;9145;48.588;9.250;2024-02-21T16:01:30;13.20;99.90